sensor_id;sensor_type;location;lat;lon;timestamp;pressure;altitude;pressure_sealevel;temperature;humidity
12209;BME280;6167;43.080;25.634;2022-07-05T00:01:27;99506.41;;;22.83;100.00
12209;BME280;6167;43.080;25.634;2022-07-05T00:03:55;99512.34;;;23.14;100.00
12209;BME280;6167;43.080;25.634;2022-07-05T00:06:24;99515.56;;;23.00;100.00
12209;BME280;6167;43.080;25.634;2022-07-05T00:08:51;99513.00;;;22.98;100.00
12209;BME280;6167;43.080;25.634;2022-07-05T00:11:18;99520.44;;;23.14;100.00
12209;BME280;6167;43.080;25.634;2022-07-05T00:13:45;99521.28;;;23.14;100.00
12209;BME280;6167;43.080;25.634;2022-07-05T00:16:12;99511.31;;;22.97;100.00
12209;BME280;6167;43.080;25.634;2022-07-05T00:18:39;99510.25;;;23.08;100.00
12209;BME280;6167;43.080;25.634;2022-07-05T00:21:06;99514.50;;;23.10;100.00
12209;BME280;6167;43.080;25.634;2022-07-05T00:23:35;99510.41;;;23.34;100.00
12209;BME280;6167;43.080;25.634;2022-07-05T00:26:02;99508.81;;;23.13;100.00
12209;BME280;6167;43.080;25.634;2022-07-05T00:28:29;99505.91;;;22.97;100.00
12209;BME280;6167;43.080;25.634;2022-07-05T00:30:56;99507.84;;;22.77;100.00
12209;BME280;6167;43.080;25.634;2022-07-05T00:33:23;99499.53;;;22.61;100.00
12209;BME280;6167;43.080;25.634;2022-07-05T00:35:52;99499.78;;;22.77;100.00
12209;BME280;6167;43.080;25.634;2022-07-05T00:38:19;99500.72;;;22.76;100.00
12209;BME280;6167;43.080;25.634;2022-07-05T00:40:47;99494.00;;;23.00;100.00
12209;BME280;6167;43.080;25.634;2022-07-05T00:43:14;99496.78;;;23.08;100.00
12209;BME280;6167;43.080;25.634;2022-07-05T00:45:41;99489.63;;;22.89;100.00
12209;BME280;6167;43.080;25.634;2022-07-05T00:48:08;99471.81;;;22.78;100.00
12209;BME280;6167;43.080;25.634;2022-07-05T00:50:34;99477.41;;;22.48;100.00
12209;BME280;6167;43.080;25.634;2022-07-05T00:53:02;99467.91;;;22.63;100.00
12209;BME280;6167;43.080;25.634;2022-07-05T00:55:29;99462.66;;;22.61;100.00
12209;BME280;6167;43.080;25.634;2022-07-05T00:57:57;99464.94;;;22.00;100.00
12209;BME280;6167;43.080;25.634;2022-07-05T01:00:24;99460.22;;;22.21;100.00
12209;BME280;6167;43.080;25.634;2022-07-05T01:02:51;99464.00;;;22.38;100.00
12209;BME280;6167;43.080;25.634;2022-07-05T01:05:19;99463.53;;;22.52;100.00
12209;BME280;6167;43.080;25.634;2022-07-05T01:07:46;99458.31;;;22.41;100.00
12209;BME280;6167;43.080;25.634;2022-07-05T01:10:13;99471.72;;;22.60;100.00
12209;BME280;6167;43.080;25.634;2022-07-05T01:12:40;99463.38;;;22.54;100.00
12209;BME280;6167;43.080;25.634;2022-07-05T01:15:09;99460.19;;;22.78;100.00
12209;BME280;6167;43.080;25.634;2022-07-05T01:17:36;99462.66;;;22.52;100.00
12209;BME280;6167;43.080;25.634;2022-07-05T01:20:05;99464.28;;;22.72;100.00
12209;BME280;6167;43.080;25.634;2022-07-05T01:22:49;99465.00;;;22.74;100.00
12209;BME280;6167;43.080;25.634;2022-07-05T01:25:19;99463.34;;;22.63;100.00
12209;BME280;6167;43.080;25.634;2022-07-05T01:27:46;99464.72;;;22.68;100.00
12209;BME280;6167;43.080;25.634;2022-07-05T01:30:14;99453.66;;;22.71;100.00
12209;BME280;6167;43.080;25.634;2022-07-05T01:32:41;99465.56;;;22.68;100.00
12209;BME280;6167;43.080;25.634;2022-07-05T01:35:09;99464.25;;;22.45;100.00
12209;BME280;6167;43.080;25.634;2022-07-05T01:37:37;99468.41;;;22.67;100.00
12209;BME280;6167;43.080;25.634;2022-07-05T01:40:07;99474.63;;;22.30;100.00
12209;BME280;6167;43.080;25.634;2022-07-05T01:42:34;99472.00;;;22.57;100.00
12209;BME280;6167;43.080;25.634;2022-07-05T01:45:02;99472.38;;;22.25;100.00
12209;BME280;6167;43.080;25.634;2022-07-05T01:47:32;99475.00;;;22.45;100.00
12209;BME280;6167;43.080;25.634;2022-07-05T01:49:59;99468.47;;;22.57;100.00
12209;BME280;6167;43.080;25.634;2022-07-05T01:52:27;99468.81;;;22.72;100.00
12209;BME280;6167;43.080;25.634;2022-07-05T01:54:57;99471.47;;;22.91;100.00
12209;BME280;6167;43.080;25.634;2022-07-05T01:57:27;99461.34;;;23.03;100.00
12209;BME280;6167;43.080;25.634;2022-07-05T01:59:54;99457.13;;;22.90;100.00
12209;BME280;6167;43.080;25.634;2022-07-05T02:02:22;99447.34;;;22.62;100.00
12209;BME280;6167;43.080;25.634;2022-07-05T02:04:49;99470.69;;;22.71;100.00
12209;BME280;6167;43.080;25.634;2022-07-05T02:07:16;99458.47;;;22.30;100.00
12209;BME280;6167;43.080;25.634;2022-07-05T02:09:44;99459.47;;;22.29;100.00
12209;BME280;6167;43.080;25.634;2022-07-05T02:12:11;99466.91;;;22.54;100.00
12209;BME280;6167;43.080;25.634;2022-07-05T02:14:40;99472.59;;;22.51;100.00
12209;BME280;6167;43.080;25.634;2022-07-05T02:17:07;99456.91;;;22.37;100.00
12209;BME280;6167;43.080;25.634;2022-07-05T02:19:35;99474.28;;;22.62;100.00
12209;BME280;6167;43.080;25.634;2022-07-05T02:22:04;99476.47;;;22.76;100.00
12209;BME280;6167;43.080;25.634;2022-07-05T02:24:31;99474.56;;;22.59;100.00
12209;BME280;6167;43.080;25.634;2022-07-05T02:26:58;99472.84;;;22.21;100.00
12209;BME280;6167;43.080;25.634;2022-07-05T02:29:25;99467.09;;;22.43;100.00
12209;BME280;6167;43.080;25.634;2022-07-05T02:31:54;99477.88;;;22.43;100.00
12209;BME280;6167;43.080;25.634;2022-07-05T02:34:21;99473.56;;;22.04;100.00
12209;BME280;6167;43.080;25.634;2022-07-05T02:36:48;99474.94;;;22.27;100.00
12209;BME280;6167;43.080;25.634;2022-07-05T02:39:17;99487.66;;;22.44;100.00
12209;BME280;6167;43.080;25.634;2022-07-05T02:41:44;99478.63;;;22.26;100.00
12209;BME280;6167;43.080;25.634;2022-07-05T02:44:11;99484.19;;;22.05;100.00
12209;BME280;6167;43.080;25.634;2022-07-05T02:46:38;99475.53;;;22.11;100.00
12209;BME280;6167;43.080;25.634;2022-07-05T02:49:07;99479.34;;;21.89;100.00
12209;BME280;6167;43.080;25.634;2022-07-05T02:51:34;99494.09;;;21.95;100.00
12209;BME280;6167;43.080;25.634;2022-07-05T02:54:02;99490.41;;;21.86;100.00
12209;BME280;6167;43.080;25.634;2022-07-05T02:56:29;99483.88;;;21.89;100.00
12209;BME280;6167;43.080;25.634;2022-07-05T02:58:56;99468.72;;;21.88;100.00
12209;BME280;6167;43.080;25.634;2022-07-05T03:01:23;99496.50;;;22.08;100.00
12209;BME280;6167;43.080;25.634;2022-07-05T03:03:51;99487.84;;;21.94;100.00
12209;BME280;6167;43.080;25.634;2022-07-05T03:06:19;99496.50;;;21.69;100.00
12209;BME280;6167;43.080;25.634;2022-07-05T03:08:46;99493.25;;;21.75;100.00
12209;BME280;6167;43.080;25.634;2022-07-05T03:11:13;99501.88;;;21.98;100.00
12209;BME280;6167;43.080;25.634;2022-07-05T03:13:40;99490.28;;;21.78;100.00
12209;BME280;6167;43.080;25.634;2022-07-05T03:16:09;99503.56;;;21.89;100.00
12209;BME280;6167;43.080;25.634;2022-07-05T03:18:36;99505.13;;;21.63;100.00
12209;BME280;6167;43.080;25.634;2022-07-05T03:21:04;99500.44;;;21.36;100.00
12209;BME280;6167;43.080;25.634;2022-07-05T03:23:33;99505.66;;;21.47;100.00
12209;BME280;6167;43.080;25.634;2022-07-05T03:26:00;99499.31;;;21.58;100.00
12209;BME280;6167;43.080;25.634;2022-07-05T03:28:27;99505.97;;;21.64;100.00
12209;BME280;6167;43.080;25.634;2022-07-05T03:30:54;99488.16;;;21.82;100.00
12209;BME280;6167;43.080;25.634;2022-07-05T03:33:21;99483.31;;;21.76;100.00
12209;BME280;6167;43.080;25.634;2022-07-05T03:35:48;99502.03;;;22.06;100.00
12209;BME280;6167;43.080;25.634;2022-07-05T03:38:16;99500.03;;;21.99;100.00
12209;BME280;6167;43.080;25.634;2022-07-05T03:40:44;99494.81;;;22.07;100.00
12209;BME280;6167;43.080;25.634;2022-07-05T03:43:11;99474.81;;;22.00;100.00
12209;BME280;6167;43.080;25.634;2022-07-05T03:45:38;99475.53;;;21.92;100.00
12209;BME280;6167;43.080;25.634;2022-07-05T03:48:05;99486.69;;;22.26;100.00
12209;BME280;6167;43.080;25.634;2022-07-05T03:50:33;99489.69;;;22.79;100.00
12209;BME280;6167;43.080;25.634;2022-07-05T03:53:00;99481.34;;;23.27;100.00
12209;BME280;6167;43.080;25.634;2022-07-05T03:55:27;99466.84;;;23.56;100.00
12209;BME280;6167;43.080;25.634;2022-07-05T03:57:55;99476.47;;;23.76;100.00
12209;BME280;6167;43.080;25.634;2022-07-05T04:00:23;99483.50;;;23.87;100.00
12209;BME280;6167;43.080;25.634;2022-07-05T04:02:50;99476.28;;;24.31;100.00
12209;BME280;6167;43.080;25.634;2022-07-05T04:05:17;99472.16;;;24.79;100.00
12209;BME280;6167;43.080;25.634;2022-07-05T04:07:49;99484.19;;;25.26;100.00
12209;BME280;6167;43.080;25.634;2022-07-05T04:10:16;99476.91;;;25.77;96.27
12209;BME280;6167;43.080;25.634;2022-07-05T04:12:43;99470.13;;;26.14;93.96
12209;BME280;6167;43.080;25.634;2022-07-05T04:15:13;99476.69;;;26.52;88.63
12209;BME280;6167;43.080;25.634;2022-07-05T04:17:47;99470.03;;;26.70;85.17
12209;BME280;6167;43.080;25.634;2022-07-05T04:20:14;99459.81;;;26.33;89.03
12209;BME280;6167;43.080;25.634;2022-07-05T04:22:42;99455.13;;;26.66;88.03
12209;BME280;6167;43.080;25.634;2022-07-05T04:25:09;99475.00;;;27.14;79.65
12209;BME280;6167;43.080;25.634;2022-07-05T04:27:57;99472.88;;;27.63;73.30
12209;BME280;6167;43.080;25.634;2022-07-05T04:30:26;99471.94;;;27.71;73.59
12209;BME280;6167;43.080;25.634;2022-07-05T04:32:53;99468.72;;;28.13;66.82
12209;BME280;6167;43.080;25.634;2022-07-05T04:35:26;99471.00;;;28.47;62.36
12209;BME280;6167;43.080;25.634;2022-07-05T04:37:53;99478.13;;;28.63;61.27
12209;BME280;6167;43.080;25.634;2022-07-05T04:40:20;99464.72;;;28.61;58.89
12209;BME280;6167;43.080;25.634;2022-07-05T04:42:47;99459.59;;;28.81;57.61
12209;BME280;6167;43.080;25.634;2022-07-05T04:45:14;99458.91;;;28.94;55.45
12209;BME280;6167;43.080;25.634;2022-07-05T04:47:43;99454.00;;;29.19;56.04
12209;BME280;6167;43.080;25.634;2022-07-05T04:50:10;99454.34;;;29.45;54.68
12209;BME280;6167;43.080;25.634;2022-07-05T04:52:37;99457.59;;;29.77;56.69
12209;BME280;6167;43.080;25.634;2022-07-05T04:55:05;99461.34;;;29.97;53.52
12209;BME280;6167;43.080;25.634;2022-07-05T04:57:36;99455.94;;;30.25;49.60
12209;BME280;6167;43.080;25.634;2022-07-05T05:00:05;99457.97;;;30.44;48.84
12209;BME280;6167;43.080;25.634;2022-07-05T05:02:34;99462.69;;;30.29;48.58
12209;BME280;6167;43.080;25.634;2022-07-05T05:05:05;99464.00;;;30.61;49.66
12209;BME280;6167;43.080;25.634;2022-07-05T05:07:32;99455.75;;;30.89;46.67
12209;BME280;6167;43.080;25.634;2022-07-05T05:10:00;99475.88;;;31.16;47.23
12209;BME280;6167;43.080;25.634;2022-07-05T05:12:28;99461.03;;;31.31;47.48
12209;BME280;6167;43.080;25.634;2022-07-05T05:14:56;99462.72;;;31.32;47.68
12209;BME280;6167;43.080;25.634;2022-07-05T05:17:22;99464.88;;;31.63;46.36
12209;BME280;6167;43.080;25.634;2022-07-05T05:19:52;99475.38;;;31.53;46.37
12209;BME280;6167;43.080;25.634;2022-07-05T05:22:20;99469.28;;;31.64;47.78
12209;BME280;6167;43.080;25.634;2022-07-05T05:24:47;99473.38;;;31.95;46.34
12209;BME280;6167;43.080;25.634;2022-07-05T05:27:14;99480.94;;;32.06;45.71
12209;BME280;6167;43.080;25.634;2022-07-05T05:29:41;99478.66;;;32.16;44.21
12209;BME280;6167;43.080;25.634;2022-07-05T05:32:08;99460.38;;;32.36;44.74
12209;BME280;6167;43.080;25.634;2022-07-05T05:34:37;99478.03;;;32.54;47.37
12209;BME280;6167;43.080;25.634;2022-07-05T05:37:28;99481.19;;;32.57;45.55
12209;BME280;6167;43.080;25.634;2022-07-05T05:39:55;99483.91;;;32.44;42.96
12209;BME280;6167;43.080;25.634;2022-07-05T05:42:23;99469.19;;;32.52;43.16
12209;BME280;6167;43.080;25.634;2022-07-05T05:44:51;99488.09;;;32.86;44.34
12209;BME280;6167;43.080;25.634;2022-07-05T05:47:18;99488.63;;;33.15;43.86
12209;BME280;6167;43.080;25.634;2022-07-05T05:49:45;99478.75;;;33.13;43.06
12209;BME280;6167;43.080;25.634;2022-07-05T05:52:12;99492.22;;;33.22;43.76
12209;BME280;6167;43.080;25.634;2022-07-05T05:54:41;99469.13;;;33.49;41.71
12209;BME280;6167;43.080;25.634;2022-07-05T05:57:08;99492.69;;;33.57;40.58
12209;BME280;6167;43.080;25.634;2022-07-05T05:59:35;99486.66;;;33.86;41.03
12209;BME280;6167;43.080;25.634;2022-07-05T06:02:04;99498.72;;;33.72;41.22
12209;BME280;6167;43.080;25.634;2022-07-05T06:04:31;99479.59;;;33.14;41.29
12209;BME280;6167;43.080;25.634;2022-07-05T06:06:59;99501.50;;;33.07;40.56
12209;BME280;6167;43.080;25.634;2022-07-05T06:09:26;99506.41;;;32.86;41.79
12209;BME280;6167;43.080;25.634;2022-07-05T06:11:55;99504.72;;;32.98;43.55
12209;BME280;6167;43.080;25.634;2022-07-05T06:14:25;99476.06;;;33.00;44.94
12209;BME280;6167;43.080;25.634;2022-07-05T06:16:53;99512.94;;;32.98;42.19
12209;BME280;6167;43.080;25.634;2022-07-05T06:19:20;99485.41;;;33.44;43.35
12209;BME280;6167;43.080;25.634;2022-07-05T06:21:50;99480.38;;;33.72;44.35
12209;BME280;6167;43.080;25.634;2022-07-05T06:24:17;99479.00;;;34.20;42.42
12209;BME280;6167;43.080;25.634;2022-07-05T06:26:44;99473.25;;;34.28;43.72
12209;BME280;6167;43.080;25.634;2022-07-05T06:29:15;99492.41;;;34.34;42.19
12209;BME280;6167;43.080;25.634;2022-07-05T06:31:42;99485.81;;;34.42;42.81
12209;BME280;6167;43.080;25.634;2022-07-05T06:34:10;99498.69;;;33.85;42.07
12209;BME280;6167;43.080;25.634;2022-07-05T06:36:37;99467.78;;;33.96;41.48
12209;BME280;6167;43.080;25.634;2022-07-05T06:39:04;99489.66;;;34.77;40.79
12209;BME280;6167;43.080;25.634;2022-07-05T06:41:31;99472.22;;;35.27;38.23
12209;BME280;6167;43.080;25.634;2022-07-05T06:43:59;99491.09;;;35.23;38.22
12209;BME280;6167;43.080;25.634;2022-07-05T06:46:28;99492.09;;;35.10;39.33
12209;BME280;6167;43.080;25.634;2022-07-05T06:48:55;99470.94;;;34.93;40.41
12209;BME280;6167;43.080;25.634;2022-07-05T06:51:22;99464.25;;;34.89;39.11
12209;BME280;6167;43.080;25.634;2022-07-05T06:53:49;99463.84;;;35.03;38.21
12209;BME280;6167;43.080;25.634;2022-07-05T06:56:17;99484.22;;;35.51;39.29
12209;BME280;6167;43.080;25.634;2022-07-05T06:58:44;99460.84;;;35.41;37.80
12209;BME280;6167;43.080;25.634;2022-07-05T07:01:11;99490.41;;;35.09;39.38
12209;BME280;6167;43.080;25.634;2022-07-05T07:03:39;99480.47;;;35.27;37.10
12209;BME280;6167;43.080;25.634;2022-07-05T07:06:07;99463.84;;;35.40;38.53
12209;BME280;6167;43.080;25.634;2022-07-05T07:08:33;99474.06;;;35.81;38.87
12209;BME280;6167;43.080;25.634;2022-07-05T07:11:18;99480.97;;;36.13;36.80
12209;BME280;6167;43.080;25.634;2022-07-05T07:13:45;99483.22;;;36.05;37.53
12209;BME280;6167;43.080;25.634;2022-07-05T07:16:12;99477.47;;;35.95;37.10
12209;BME280;6167;43.080;25.634;2022-07-05T07:18:41;99454.94;;;35.86;39.02
12209;BME280;6167;43.080;25.634;2022-07-05T07:21:08;99471.75;;;36.08;37.25
12209;BME280;6167;43.080;25.634;2022-07-05T07:23:36;99462.28;;;36.04;37.28
12209;BME280;6167;43.080;25.634;2022-07-05T07:26:03;99464.09;;;36.10;38.65
12209;BME280;6167;43.080;25.634;2022-07-05T07:28:31;99462.00;;;36.35;39.18
12209;BME280;6167;43.080;25.634;2022-07-05T07:30:58;99482.81;;;36.66;40.33
12209;BME280;6167;43.080;25.634;2022-07-05T07:33:25;99464.63;;;36.30;38.00
12209;BME280;6167;43.080;25.634;2022-07-05T07:35:54;99462.41;;;36.21;38.04
12209;BME280;6167;43.080;25.634;2022-07-05T07:38:21;99478.09;;;36.20;37.65
12209;BME280;6167;43.080;25.634;2022-07-05T07:40:51;99466.53;;;36.41;36.01
12209;BME280;6167;43.080;25.634;2022-07-05T07:43:18;99450.56;;;36.20;34.95
12209;BME280;6167;43.080;25.634;2022-07-05T07:45:46;99447.91;;;35.90;38.13
12209;BME280;6167;43.080;25.634;2022-07-05T07:48:14;99467.97;;;36.44;36.81
12209;BME280;6167;43.080;25.634;2022-07-05T07:50:41;99466.72;;;37.22;37.27
12209;BME280;6167;43.080;25.634;2022-07-05T07:53:11;99449.00;;;37.17;35.28
12209;BME280;6167;43.080;25.634;2022-07-05T07:55:38;99466.84;;;37.83;35.92
12209;BME280;6167;43.080;25.634;2022-07-05T07:58:05;99461.91;;;37.86;36.16
12209;BME280;6167;43.080;25.634;2022-07-05T08:00:37;99446.88;;;37.76;37.06
12209;BME280;6167;43.080;25.634;2022-07-05T08:03:04;99445.09;;;36.90;39.64
12209;BME280;6167;43.080;25.634;2022-07-05T08:05:31;99453.03;;;37.38;40.14
12209;BME280;6167;43.080;25.634;2022-07-05T08:08:02;99464.66;;;38.14;37.16
12209;BME280;6167;43.080;25.634;2022-07-05T08:10:32;99439.34;;;37.89;37.49
12209;BME280;6167;43.080;25.634;2022-07-05T08:12:59;99457.59;;;38.06;37.60
12209;BME280;6167;43.080;25.634;2022-07-05T08:15:27;99451.06;;;37.96;37.63
12209;BME280;6167;43.080;25.634;2022-07-05T08:17:54;99447.41;;;37.62;38.40
12209;BME280;6167;43.080;25.634;2022-07-05T08:20:38;99461.66;;;37.70;37.70
12209;BME280;6167;43.080;25.634;2022-07-05T08:23:24;99462.88;;;38.25;38.19
12209;BME280;6167;43.080;25.634;2022-07-05T08:25:53;99449.53;;;37.71;37.59
12209;BME280;6167;43.080;25.634;2022-07-05T08:28:20;99439.88;;;38.02;37.95
12209;BME280;6167;43.080;25.634;2022-07-05T08:30:47;99438.75;;;37.70;36.28
12209;BME280;6167;43.080;25.634;2022-07-05T08:33:15;99456.50;;;37.91;35.23
12209;BME280;6167;43.080;25.634;2022-07-05T08:36:17;99452.31;;;38.55;31.84
12209;BME280;6167;43.080;25.634;2022-07-05T08:38:44;99436.91;;;38.76;32.09
12209;BME280;6167;43.080;25.634;2022-07-05T08:41:17;99453.94;;;38.90;33.28
12209;BME280;6167;43.080;25.634;2022-07-05T08:43:47;99433.06;;;38.99;33.01
12209;BME280;6167;43.080;25.634;2022-07-05T08:46:19;99433.16;;;39.26;30.55
12209;BME280;6167;43.080;25.634;2022-07-05T08:48:48;99439.56;;;39.31;31.36
12209;BME280;6167;43.080;25.634;2022-07-05T08:51:17;99437.75;;;38.98;30.95
12209;BME280;6167;43.080;25.634;2022-07-05T08:53:48;99448.41;;;39.06;30.98
12209;BME280;6167;43.080;25.634;2022-07-05T08:56:19;99438.38;;;39.00;31.59
12209;BME280;6167;43.080;25.634;2022-07-05T08:58:47;99431.59;;;38.02;32.91
12209;BME280;6167;43.080;25.634;2022-07-05T09:01:15;99430.38;;;38.82;31.42
12209;BME280;6167;43.080;25.634;2022-07-05T09:03:47;99447.00;;;39.04;31.27
12209;BME280;6167;43.080;25.634;2022-07-05T09:06:25;99429.78;;;38.41;30.48
12209;BME280;6167;43.080;25.634;2022-07-05T09:09:13;99425.69;;;38.10;32.50
12209;BME280;6167;43.080;25.634;2022-07-05T09:11:45;99431.47;;;38.81;30.82
12209;BME280;6167;43.080;25.634;2022-07-05T09:14:19;99436.72;;;38.27;31.50
12209;BME280;6167;43.080;25.634;2022-07-05T09:16:47;99436.19;;;39.02;31.26
12209;BME280;6167;43.080;25.634;2022-07-05T09:19:14;99417.91;;;38.79;32.19
12209;BME280;6167;43.080;25.634;2022-07-05T09:21:41;99426.88;;;38.53;31.02
12209;BME280;6167;43.080;25.634;2022-07-05T09:24:11;99442.97;;;38.95;30.09
12209;BME280;6167;43.080;25.634;2022-07-05T09:26:40;99416.22;;;38.78;29.28
12209;BME280;6167;43.080;25.634;2022-07-05T09:29:09;99441.28;;;38.94;29.50
12209;BME280;6167;43.080;25.634;2022-07-05T09:31:38;99438.56;;;39.15;29.60
12209;BME280;6167;43.080;25.634;2022-07-05T09:34:07;99409.47;;;38.91;29.27
12209;BME280;6167;43.080;25.634;2022-07-05T09:36:50;99433.06;;;38.77;29.51
12209;BME280;6167;43.080;25.634;2022-07-05T09:39:17;99424.31;;;38.63;30.03
12209;BME280;6167;43.080;25.634;2022-07-05T09:41:45;99420.66;;;38.41;29.75
12209;BME280;6167;43.080;25.634;2022-07-05T09:44:25;99432.97;;;38.16;30.42
12209;BME280;6167;43.080;25.634;2022-07-05T09:47:07;99416.63;;;37.98;31.56
12209;BME280;6167;43.080;25.634;2022-07-05T09:49:36;99422.09;;;36.96;34.13
12209;BME280;6167;43.080;25.634;2022-07-05T09:52:04;99417.03;;;37.45;31.67
12209;BME280;6167;43.080;25.634;2022-07-05T09:54:31;99414.16;;;37.68;31.48
12209;BME280;6167;43.080;25.634;2022-07-05T09:56:59;99413.34;;;37.68;32.04
12209;BME280;6167;43.080;25.634;2022-07-05T09:59:28;99394.53;;;37.65;31.95
12209;BME280;6167;43.080;25.634;2022-07-05T10:01:55;99396.16;;;37.77;31.45
12209;BME280;6167;43.080;25.634;2022-07-05T10:05:07;99416.69;;;37.70;33.41
12209;BME280;6167;43.080;25.634;2022-07-05T10:07:35;99396.28;;;38.04;32.01
12209;BME280;6167;43.080;25.634;2022-07-05T10:10:06;99409.13;;;38.10;32.66
12209;BME280;6167;43.080;25.634;2022-07-05T10:12:37;99406.09;;;38.29;31.73
12209;BME280;6167;43.080;25.634;2022-07-05T10:15:26;99386.34;;;37.87;31.80
12209;BME280;6167;43.080;25.634;2022-07-05T10:17:56;99390.72;;;38.16;32.06
12209;BME280;6167;43.080;25.634;2022-07-05T10:20:33;99396.63;;;38.41;31.58
12209;BME280;6167;43.080;25.634;2022-07-05T10:23:02;99390.94;;;38.65;31.11
12209;BME280;6167;43.080;25.634;2022-07-05T10:25:30;99403.31;;;38.62;30.83
12209;BME280;6167;43.080;25.634;2022-07-05T10:27:59;99375.41;;;38.25;31.71
12209;BME280;6167;43.080;25.634;2022-07-05T10:30:29;99366.09;;;38.31;31.54
12209;BME280;6167;43.080;25.634;2022-07-05T10:32:56;99388.69;;;38.45;30.97
12209;BME280;6167;43.080;25.634;2022-07-05T10:35:24;99375.91;;;37.89;32.33
12209;BME280;6167;43.080;25.634;2022-07-05T10:37:54;99366.28;;;38.25;31.96
12209;BME280;6167;43.080;25.634;2022-07-05T10:40:21;99385.09;;;38.28;31.40
12209;BME280;6167;43.080;25.634;2022-07-05T10:42:51;99377.59;;;38.23;31.48
12209;BME280;6167;43.080;25.634;2022-07-05T10:45:38;99382.25;;;37.89;32.36
12209;BME280;6167;43.080;25.634;2022-07-05T10:48:14;99363.22;;;38.21;31.63
12209;BME280;6167;43.080;25.634;2022-07-05T10:50:54;99351.56;;;37.86;32.25
12209;BME280;6167;43.080;25.634;2022-07-05T10:53:23;99369.16;;;37.79;32.00
12209;BME280;6167;43.080;25.634;2022-07-05T10:55:56;99351.56;;;37.24;31.37
12209;BME280;6167;43.080;25.634;2022-07-05T10:58:25;99369.94;;;37.06;32.56
12209;BME280;6167;43.080;25.634;2022-07-05T11:01:33;99373.66;;;37.12;33.68
12209;BME280;6167;43.080;25.634;2022-07-05T11:04:19;99369.31;;;37.44;33.06
12209;BME280;6167;43.080;25.634;2022-07-05T11:06:48;99369.09;;;37.63;32.63
12209;BME280;6167;43.080;25.634;2022-07-05T11:09:17;99339.59;;;37.63;32.81
12209;BME280;6167;43.080;25.634;2022-07-05T11:11:48;99344.59;;;37.49;32.92
12209;BME280;6167;43.080;25.634;2022-07-05T11:14:46;99359.72;;;37.64;33.24
12209;BME280;6167;43.080;25.634;2022-07-05T11:17:22;99358.53;;;37.71;32.71
12209;BME280;6167;43.080;25.634;2022-07-05T11:20:13;99348.81;;;37.86;32.97
12209;BME280;6167;43.080;25.634;2022-07-05T11:22:42;99334.00;;;38.08;32.44
12209;BME280;6167;43.080;25.634;2022-07-05T11:25:28;99322.69;;;37.43;33.47
12209;BME280;6167;43.080;25.634;2022-07-05T11:28:01;99327.47;;;37.47;33.86
12209;BME280;6167;43.080;25.634;2022-07-05T11:30:29;99342.81;;;37.89;33.96
12209;BME280;6167;43.080;25.634;2022-07-05T11:36:24;99329.06;;;37.43;33.47
12209;BME280;6167;43.080;25.634;2022-07-05T11:39:08;99328.88;;;37.33;33.09
12209;BME280;6167;43.080;25.634;2022-07-05T11:41:37;99342.22;;;37.25;33.75
12209;BME280;6167;43.080;25.634;2022-07-05T11:44:06;99341.72;;;36.99;34.89
12209;BME280;6167;43.080;25.634;2022-07-05T11:46:35;99338.06;;;36.70;36.05
12209;BME280;6167;43.080;25.634;2022-07-05T11:49:11;99321.75;;;36.05;36.97
12209;BME280;6167;43.080;25.634;2022-07-05T11:51:38;99338.59;;;35.97;36.61
12209;BME280;6167;43.080;25.634;2022-07-05T11:54:08;99305.03;;;35.95;36.24
12209;BME280;6167;43.080;25.634;2022-07-05T11:56:36;99309.09;;;35.93;36.55
12209;BME280;6167;43.080;25.634;2022-07-05T11:59:16;99320.06;;;36.39;37.06
12209;BME280;6167;43.080;25.634;2022-07-05T12:01:43;99304.53;;;36.33;36.25
12209;BME280;6167;43.080;25.634;2022-07-05T12:04:20;99303.53;;;36.51;36.96
12209;BME280;6167;43.080;25.634;2022-07-05T12:06:48;99319.63;;;36.31;36.31
12209;BME280;6167;43.080;25.634;2022-07-05T12:09:22;99329.94;;;35.47;37.13
12209;BME280;6167;43.080;25.634;2022-07-05T12:11:50;99329.53;;;35.32;38.11
12209;BME280;6167;43.080;25.634;2022-07-05T12:14:34;99316.28;;;35.40;38.00
12209;BME280;6167;43.080;25.634;2022-07-05T12:17:15;99318.09;;;35.46;39.65
12209;BME280;6167;43.080;25.634;2022-07-05T12:19:46;99296.38;;;35.68;37.93
12209;BME280;6167;43.080;25.634;2022-07-05T12:22:13;99301.16;;;35.96;38.74
12209;BME280;6167;43.080;25.634;2022-07-05T12:24:40;99304.97;;;36.19;38.45
12209;BME280;6167;43.080;25.634;2022-07-05T12:27:09;99276.06;;;36.16;37.29
12209;BME280;6167;43.080;25.634;2022-07-05T12:29:37;99277.59;;;36.24;37.24
12209;BME280;6167;43.080;25.634;2022-07-05T12:32:05;99280.97;;;36.26;37.35
12209;BME280;6167;43.080;25.634;2022-07-05T12:34:34;99293.88;;;36.37;38.81
12209;BME280;6167;43.080;25.634;2022-07-05T12:37:03;99294.97;;;36.24;38.74
12209;BME280;6167;43.080;25.634;2022-07-05T12:39:31;99290.06;;;36.14;37.82
12209;BME280;6167;43.080;25.634;2022-07-05T12:41:58;99292.53;;;36.39;37.55
12209;BME280;6167;43.080;25.634;2022-07-05T12:44:25;99265.06;;;36.28;37.51
12209;BME280;6167;43.080;25.634;2022-07-05T12:47:03;99287.94;;;35.93;37.67
12209;BME280;6167;43.080;25.634;2022-07-05T12:49:31;99289.47;;;35.89;39.20
12209;BME280;6167;43.080;25.634;2022-07-05T12:52:05;99271.41;;;36.05;38.03
12209;BME280;6167;43.080;25.634;2022-07-05T12:54:32;99267.53;;;36.17;37.73
12209;BME280;6167;43.080;25.634;2022-07-05T12:57:16;99273.31;;;36.16;38.05
12209;BME280;6167;43.080;25.634;2022-07-05T13:00:36;99272.13;;;36.12;38.30
12209;BME280;6167;43.080;25.634;2022-07-05T13:03:04;99274.84;;;36.24;38.26
12209;BME280;6167;43.080;25.634;2022-07-05T13:05:32;99259.09;;;35.96;38.65
12209;BME280;6167;43.080;25.634;2022-07-05T13:08:03;99266.63;;;36.12;37.58
12209;BME280;6167;43.080;25.634;2022-07-05T13:10:31;99273.78;;;36.01;38.37
12209;BME280;6167;43.080;25.634;2022-07-05T13:13:04;99251.56;;;35.79;38.57
12209;BME280;6167;43.080;25.634;2022-07-05T13:15:32;99252.38;;;35.68;38.84